sensor_id;sensor_type;location;lat;lon;timestamp;P1;durP1;ratioP1;P2;durP2;ratioP2
78895;SDS011;68284;59.124;37.910;2023-06-04T00:01:45;15.15;;;7.32;;
78895;SDS011;68284;59.124;37.910;2023-06-04T00:04:12;9.50;;;6.75;;
78895;SDS011;68284;59.124;37.910;2023-06-04T00:06:38;11.57;;;5.63;;
78895;SDS011;68284;59.124;37.910;2023-06-04T00:09:04;7.97;;;5.47;;
78895;SDS011;68284;59.124;37.910;2023-06-04T00:11:31;5.00;;;4.32;;
78895;SDS011;68284;59.124;37.910;2023-06-04T00:14:00;4.43;;;3.45;;
78895;SDS011;68284;59.124;37.910;2023-06-04T00:16:26;5.97;;;2.22;;
78895;SDS011;68284;59.124;37.910;2023-06-04T00:18:52;9.90;;;3.08;;
78895;SDS011;68284;59.124;37.910;2023-06-04T00:21:19;5.65;;;3.05;;
78895;SDS011;68284;59.124;37.910;2023-06-04T00:23:45;15.20;;;8.35;;
78895;SDS011;68284;59.124;37.910;2023-06-04T00:26:12;11.80;;;4.68;;
78895;SDS011;68284;59.124;37.910;2023-06-04T00:28:42;12.63;;;4.68;;
78895;SDS011;68284;59.124;37.910;2023-06-04T00:31:09;13.38;;;3.97;;
78895;SDS011;68284;59.124;37.910;2023-06-04T00:33:36;13.30;;;3.63;;
78895;SDS011;68284;59.124;37.910;2023-06-04T00:36:02;11.52;;;2.90;;
78895;SDS011;68284;59.124;37.910;2023-06-04T00:38:29;8.43;;;2.60;;
78895;SDS011;68284;59.124;37.910;2023-06-04T00:43:22;12.57;;;1.90;;
78895;SDS011;68284;59.124;37.910;2023-06-04T00:45:52;11.77;;;4.45;;
78895;SDS011;68284;59.124;37.910;2023-06-04T00:48:19;15.32;;;3.65;;
78895;SDS011;68284;59.124;37.910;2023-06-04T00:50:46;13.27;;;2.90;;
78895;SDS011;68284;59.124;37.910;2023-06-04T00:53:14;12.68;;;3.03;;
78895;SDS011;68284;59.124;37.910;2023-06-04T00:55:41;5.55;;;2.55;;
78895;SDS011;68284;59.124;37.910;2023-06-04T00:58:07;9.70;;;2.17;;
78895;SDS011;68284;59.124;37.910;2023-06-04T01:00:35;10.75;;;2.72;;
78895;SDS011;68284;59.124;37.910;2023-06-04T01:03:03;6.85;;;2.42;;
78895;SDS011;68284;59.124;37.910;2023-06-04T01:06:12;12.95;;;2.92;;
78895;SDS011;68284;59.124;37.910;2023-06-04T01:08:37;7.20;;;2.13;;
78895;SDS011;68284;59.124;37.910;2023-06-04T01:11:08;14.98;;;3.30;;
78895;SDS011;68284;59.124;37.910;2023-06-04T01:13:34;6.93;;;2.38;;
78895;SDS011;68284;59.124;37.910;2023-06-04T01:16:01;12.85;;;3.47;;
78895;SDS011;68284;59.124;37.910;2023-06-04T01:18:28;11.25;;;2.85;;
78895;SDS011;68284;59.124;37.910;2023-06-04T01:26:00;5.47;;;1.98;;
78895;SDS011;68284;59.124;37.910;2023-06-04T01:28:31;7.85;;;2.60;;
78895;SDS011;68284;59.124;37.910;2023-06-04T01:30:59;8.20;;;3.28;;
78895;SDS011;68284;59.124;37.910;2023-06-04T01:33:27;10.32;;;3.33;;
78895;SDS011;68284;59.124;37.910;2023-06-04T01:35:54;11.88;;;2.97;;
78895;SDS011;68284;59.124;37.910;2023-06-04T01:38:20;14.48;;;2.58;;
78895;SDS011;68284;59.124;37.910;2023-06-04T01:40:47;5.43;;;1.50;;
78895;SDS011;68284;59.124;37.910;2023-06-04T01:43:14;11.20;;;2.70;;
78895;SDS011;68284;59.124;37.910;2023-06-04T01:45:40;7.03;;;2.38;;
78895;SDS011;68284;59.124;37.910;2023-06-04T01:48:07;10.00;;;1.48;;
78895;SDS011;68284;59.124;37.910;2023-06-04T01:50:33;2.70;;;0.80;;
78895;SDS011;68284;59.124;37.910;2023-06-04T01:52:59;4.00;;;0.80;;
78895;SDS011;68284;59.124;37.910;2023-06-04T01:55:26;3.20;;;0.90;;
78895;SDS011;68284;59.124;37.910;2023-06-04T01:57:53;1.58;;;1.15;;
78895;SDS011;68284;59.124;37.910;2023-06-04T02:00:19;2.65;;;1.15;;
78895;SDS011;68284;59.124;37.910;2023-06-04T02:02:46;3.42;;;1.55;;
78895;SDS011;68284;59.124;37.910;2023-06-04T02:05:17;5.15;;;1.13;;
78895;SDS011;68284;59.124;37.910;2023-06-04T02:07:44;7.72;;;1.73;;
78895;SDS011;68284;59.124;37.910;2023-06-04T02:10:14;2.28;;;0.93;;
78895;SDS011;68284;59.124;37.910;2023-06-04T02:12:52;1.33;;;0.60;;
78895;SDS011;68284;59.124;37.910;2023-06-04T02:15:21;0.75;;;0.65;;
78895;SDS011;68284;59.124;37.910;2023-06-04T02:17:49;6.38;;;0.90;;
78895;SDS011;68284;59.124;37.910;2023-06-04T02:20:16;0.68;;;0.68;;
78895;SDS011;68284;59.124;37.910;2023-06-04T02:22:43;5.20;;;0.73;;
78895;SDS011;68284;59.124;37.910;2023-06-04T02:25:09;0.93;;;0.75;;
78895;SDS011;68284;59.124;37.910;2023-06-04T02:30:03;0.52;;;0.52;;
78895;SDS011;68284;59.124;37.910;2023-06-04T02:32:31;6.53;;;1.42;;
78895;SDS011;68284;59.124;37.910;2023-06-04T02:34:59;0.77;;;0.77;;
78895;SDS011;68284;59.124;37.910;2023-06-04T02:37:26;1.02;;;0.95;;
78895;SDS011;68284;59.124;37.910;2023-06-04T02:39:52;1.02;;;0.85;;
78895;SDS011;68284;59.124;37.910;2023-06-04T02:42:19;1.50;;;0.63;;
78895;SDS011;68284;59.124;37.910;2023-06-04T02:44:46;2.42;;;0.90;;
78895;SDS011;68284;59.124;37.910;2023-06-04T02:47:12;1.60;;;1.00;;
78895;SDS011;68284;59.124;37.910;2023-06-04T02:49:39;2.35;;;1.23;;
78895;SDS011;68284;59.124;37.910;2023-06-04T02:54:32;0.45;;;0.43;;
78895;SDS011;68284;59.124;37.910;2023-06-04T02:56:58;2.45;;;0.50;;
78895;SDS011;68284;59.124;37.910;2023-06-04T02:59:25;3.05;;;0.82;;
78895;SDS011;68284;59.124;37.910;2023-06-04T03:01:53;3.60;;;0.57;;
78895;SDS011;68284;59.124;37.910;2023-06-04T03:06:46;0.60;;;0.43;;
78895;SDS011;68284;59.124;37.910;2023-06-04T03:09:13;4.30;;;1.08;;
78895;SDS011;68284;59.124;37.910;2023-06-04T03:11:41;5.20;;;1.20;;
78895;SDS011;68284;59.124;37.910;2023-06-04T03:14:08;2.55;;;1.10;;
78895;SDS011;68284;59.124;37.910;2023-06-04T03:16:34;2.38;;;0.70;;
78895;SDS011;68284;59.124;37.910;2023-06-04T03:19:01;1.05;;;0.90;;
78895;SDS011;68284;59.124;37.910;2023-06-04T03:21:27;9.32;;;1.45;;
78895;SDS011;68284;59.124;37.910;2023-06-04T03:23:55;0.75;;;0.70;;
78895;SDS011;68284;59.124;37.910;2023-06-04T03:26:22;2.05;;;0.77;;
78895;SDS011;68284;59.124;37.910;2023-06-04T03:31:18;1.00;;;0.60;;
78895;SDS011;68284;59.124;37.910;2023-06-04T03:36:10;0.70;;;0.70;;
78895;SDS011;68284;59.124;37.910;2023-06-04T03:38:37;1.27;;;0.55;;
78895;SDS011;68284;59.124;37.910;2023-06-04T03:41:03;0.63;;;0.63;;
78895;SDS011;68284;59.124;37.910;2023-06-04T03:43:30;0.63;;;0.63;;
78895;SDS011;68284;59.124;37.910;2023-06-04T03:46:01;0.52;;;0.52;;
78895;SDS011;68284;59.124;37.910;2023-06-04T03:48:27;1.25;;;1.08;;
78895;SDS011;68284;59.124;37.910;2023-06-04T03:50:54;0.50;;;0.50;;
78895;SDS011;68284;59.124;37.910;2023-06-04T03:53:20;1.95;;;0.73;;
78895;SDS011;68284;59.124;37.910;2023-06-04T03:55:48;1.20;;;0.90;;
78895;SDS011;68284;59.124;37.910;2023-06-04T03:58:15;1.23;;;1.23;;
78895;SDS011;68284;59.124;37.910;2023-06-04T04:00:45;1.15;;;1.05;;
78895;SDS011;68284;59.124;37.910;2023-06-04T04:03:12;0.93;;;0.82;;
78895;SDS011;68284;59.124;37.910;2023-06-04T04:05:39;1.23;;;1.20;;
78895;SDS011;68284;59.124;37.910;2023-06-04T04:08:05;0.90;;;0.80;;
78895;SDS011;68284;59.124;37.910;2023-06-04T04:10:33;2.38;;;0.90;;
78895;SDS011;68284;59.124;37.910;2023-06-04T04:12:59;1.75;;;0.90;;
78895;SDS011;68284;59.124;37.910;2023-06-04T04:15:28;1.55;;;0.82;;
78895;SDS011;68284;59.124;37.910;2023-06-04T04:17:55;1.15;;;0.93;;
78895;SDS011;68284;59.124;37.910;2023-06-04T04:20:21;1.45;;;1.00;;
78895;SDS011;68284;59.124;37.910;2023-06-04T04:22:55;1.67;;;0.88;;
78895;SDS011;68284;59.124;37.910;2023-06-04T04:25:22;1.02;;;0.93;;
78895;SDS011;68284;59.124;37.910;2023-06-04T04:27:50;0.82;;;0.82;;
78895;SDS011;68284;59.124;37.910;2023-06-04T04:30:17;1.55;;;0.95;;
78895;SDS011;68284;59.124;37.910;2023-06-04T04:32:46;1.02;;;0.90;;
78895;SDS011;68284;59.124;37.910;2023-06-04T04:35:20;2.10;;;0.82;;
78895;SDS011;68284;59.124;37.910;2023-06-04T04:37:50;0.85;;;0.85;;
78895;SDS011;68284;59.124;37.910;2023-06-04T04:40:17;1.75;;;0.73;;
78895;SDS011;68284;59.124;37.910;2023-06-04T04:42:46;2.75;;;1.63;;
78895;SDS011;68284;59.124;37.910;2023-06-04T04:45:15;0.98;;;0.82;;
78895;SDS011;68284;59.124;37.910;2023-06-04T04:47:44;1.05;;;0.63;;
78895;SDS011;68284;59.124;37.910;2023-06-04T04:50:10;2.13;;;0.98;;
78895;SDS011;68284;59.124;37.910;2023-06-04T04:52:36;1.17;;;0.88;;
78895;SDS011;68284;59.124;37.910;2023-06-04T04:55:04;1.63;;;1.13;;
78895;SDS011;68284;59.124;37.910;2023-06-04T04:57:33;0.93;;;0.93;;
78895;SDS011;68284;59.124;37.910;2023-06-04T05:00:02;0.80;;;0.80;;
78895;SDS011;68284;59.124;37.910;2023-06-04T05:02:32;0.73;;;0.73;;
78895;SDS011;68284;59.124;37.910;2023-06-04T05:04:59;1.20;;;1.15;;
78895;SDS011;68284;59.124;37.910;2023-06-04T05:09:52;1.45;;;0.85;;
78895;SDS011;68284;59.124;37.910;2023-06-04T05:12:19;1.88;;;0.98;;
78895;SDS011;68284;59.124;37.910;2023-06-04T05:14:46;9.05;;;1.52;;
78895;SDS011;68284;59.124;37.910;2023-06-04T05:17:14;1.73;;;0.82;;
78895;SDS011;68284;59.124;37.910;2023-06-04T05:19:43;0.85;;;0.85;;
78895;SDS011;68284;59.124;37.910;2023-06-04T05:22:11;3.45;;;1.15;;
78895;SDS011;68284;59.124;37.910;2023-06-04T05:24:39;0.85;;;0.82;;
78895;SDS011;68284;59.124;37.910;2023-06-04T05:27:08;0.90;;;0.68;;
78895;SDS011;68284;59.124;37.910;2023-06-04T05:29:35;1.42;;;0.93;;
78895;SDS011;68284;59.124;37.910;2023-06-04T05:32:02;0.65;;;0.65;;
78895;SDS011;68284;59.124;37.910;2023-06-04T05:34:29;1.10;;;1.00;;
78895;SDS011;68284;59.124;37.910;2023-06-04T05:36:55;4.10;;;1.25;;
78895;SDS011;68284;59.124;37.910;2023-06-04T05:39:23;0.60;;;0.60;;
78895;SDS011;68284;59.124;37.910;2023-06-04T05:41:57;1.02;;;0.90;;
78895;SDS011;68284;59.124;37.910;2023-06-04T05:46:50;2.33;;;0.90;;
78895;SDS011;68284;59.124;37.910;2023-06-04T05:49:16;1.80;;;0.80;;
78895;SDS011;68284;59.124;37.910;2023-06-04T05:51:44;1.77;;;0.93;;
78895;SDS011;68284;59.124;37.910;2023-06-04T05:54:14;2.15;;;1.15;;
78895;SDS011;68284;59.124;37.910;2023-06-04T05:56:44;0.90;;;0.82;;
78895;SDS011;68284;59.124;37.910;2023-06-04T05:59:13;1.02;;;1.00;;
78895;SDS011;68284;59.124;37.910;2023-06-04T06:01:40;1.13;;;1.00;;
78895;SDS011;68284;59.124;37.910;2023-06-04T06:04:07;1.20;;;0.85;;
78895;SDS011;68284;59.124;37.910;2023-06-04T06:06:34;1.50;;;1.10;;
78895;SDS011;68284;59.124;37.910;2023-06-04T06:09:01;4.00;;;1.10;;
78895;SDS011;68284;59.124;37.910;2023-06-04T06:11:28;1.48;;;1.23;;
78895;SDS011;68284;59.124;37.910;2023-06-04T06:13:55;1.73;;;1.10;;
78895;SDS011;68284;59.124;37.910;2023-06-04T06:16:22;1.48;;;0.70;;
78895;SDS011;68284;59.124;37.910;2023-06-04T06:18:48;1.17;;;0.98;;
78895;SDS011;68284;59.124;37.910;2023-06-04T06:21:15;1.13;;;1.00;;
78895;SDS011;68284;59.124;37.910;2023-06-04T06:23:41;1.38;;;1.27;;
78895;SDS011;68284;59.124;37.910;2023-06-04T06:26:10;1.02;;;0.93;;
78895;SDS011;68284;59.124;37.910;2023-06-04T06:28:47;1.08;;;1.00;;
78895;SDS011;68284;59.124;37.910;2023-06-04T06:31:15;1.40;;;1.30;;
78895;SDS011;68284;59.124;37.910;2023-06-04T06:33:41;1.88;;;1.05;;
78895;SDS011;68284;59.124;37.910;2023-06-04T06:36:09;1.02;;;0.93;;
78895;SDS011;68284;59.124;37.910;2023-06-04T06:38:38;0.75;;;0.65;;
78895;SDS011;68284;59.124;37.910;2023-06-04T06:41:07;0.90;;;0.80;;
78895;SDS011;68284;59.124;37.910;2023-06-04T06:43:34;1.35;;;0.90;;
78895;SDS011;68284;59.124;37.910;2023-06-04T06:46:00;0.55;;;0.52;;
78895;SDS011;68284;59.124;37.910;2023-06-04T06:48:27;1.25;;;1.15;;
78895;SDS011;68284;59.124;37.910;2023-06-04T06:50:53;1.00;;;0.70;;
78895;SDS011;68284;59.124;37.910;2023-06-04T06:53:20;1.17;;;0.63;;
78895;SDS011;68284;59.124;37.910;2023-06-04T06:56:05;2.92;;;0.75;;
78895;SDS011;68284;59.124;37.910;2023-06-04T06:58:32;1.67;;;1.20;;
78895;SDS011;68284;59.124;37.910;2023-06-04T07:00:59;1.40;;;0.80;;
78895;SDS011;68284;59.124;37.910;2023-06-04T07:03:25;0.80;;;0.80;;
78895;SDS011;68284;59.124;37.910;2023-06-04T07:05:53;1.52;;;0.98;;
78895;SDS011;68284;59.124;37.910;2023-06-04T07:08:20;1.10;;;0.60;;
78895;SDS011;68284;59.124;37.910;2023-06-04T07:10:47;0.93;;;0.90;;
78895;SDS011;68284;59.124;37.910;2023-06-04T07:13:13;1.77;;;0.80;;
78895;SDS011;68284;59.124;37.910;2023-06-04T07:15:39;1.77;;;1.20;;
78895;SDS011;68284;59.124;37.910;2023-06-04T07:18:07;1.42;;;1.20;;
78895;SDS011;68284;59.124;37.910;2023-06-04T07:20:34;7.18;;;1.17;;
78895;SDS011;68284;59.124;37.910;2023-06-04T07:23:01;1.40;;;0.88;;
78895;SDS011;68284;59.124;37.910;2023-06-04T07:25:28;1.17;;;0.75;;
78895;SDS011;68284;59.124;37.910;2023-06-04T07:27:54;1.38;;;0.82;;
78895;SDS011;68284;59.124;37.910;2023-06-04T07:30:28;1.80;;;1.08;;
78895;SDS011;68284;59.124;37.910;2023-06-04T07:32:54;1.52;;;0.90;;
78895;SDS011;68284;59.124;37.910;2023-06-04T07:37:46;0.95;;;0.80;;
78895;SDS011;68284;59.124;37.910;2023-06-04T07:40:14;1.20;;;0.80;;
78895;SDS011;68284;59.124;37.910;2023-06-04T07:42:42;1.30;;;1.20;;
78895;SDS011;68284;59.124;37.910;2023-06-04T07:45:08;1.17;;;0.52;;
78895;SDS011;68284;59.124;37.910;2023-06-04T07:47:35;1.63;;;0.77;;
78895;SDS011;68284;59.124;37.910;2023-06-04T07:50:03;3.35;;;0.95;;
78895;SDS011;68284;59.124;37.910;2023-06-04T07:52:30;1.25;;;0.88;;
78895;SDS011;68284;59.124;37.910;2023-06-04T07:54:56;0.95;;;0.60;;
78895;SDS011;68284;59.124;37.910;2023-06-04T07:57:22;0.90;;;0.90;;
78895;SDS011;68284;59.124;37.910;2023-06-04T07:59:49;0.52;;;0.52;;
78895;SDS011;68284;59.124;37.910;2023-06-04T08:02:16;1.45;;;1.10;;
78895;SDS011;68284;59.124;37.910;2023-06-04T08:04:43;0.75;;;0.75;;
78895;SDS011;68284;59.124;37.910;2023-06-04T08:07:11;1.40;;;0.60;;
78895;SDS011;68284;59.124;37.910;2023-06-04T08:09:37;0.77;;;0.40;;
78895;SDS011;68284;59.124;37.910;2023-06-04T08:12:04;1.25;;;0.80;;
78895;SDS011;68284;59.124;37.910;2023-06-04T08:14:31;2.92;;;0.73;;
78895;SDS011;68284;59.124;37.910;2023-06-04T08:16:58;1.33;;;0.68;;
78895;SDS011;68284;59.124;37.910;2023-06-04T08:19:44;0.70;;;0.68;;
78895;SDS011;68284;59.124;37.910;2023-06-04T08:22:16;0.50;;;0.50;;
78895;SDS011;68284;59.124;37.910;2023-06-04T08:24:59;0.60;;;0.60;;
78895;SDS011;68284;59.124;37.910;2023-06-04T08:27:53;1.50;;;0.70;;
78895;SDS011;68284;59.124;37.910;2023-06-04T08:30:39;2.53;;;0.85;;
78895;SDS011;68284;59.124;37.910;2023-06-04T08:33:11;3.28;;;0.70;;
78895;SDS011;68284;59.124;37.910;2023-06-04T08:35:57;0.50;;;0.50;;
78895;SDS011;68284;59.124;37.910;2023-06-04T08:38:23;1.25;;;0.68;;
78895;SDS011;68284;59.124;37.910;2023-06-04T08:40:52;0.82;;;0.50;;
78895;SDS011;68284;59.124;37.910;2023-06-04T08:43:21;1.00;;;0.77;;
78895;SDS011;68284;59.124;37.910;2023-06-04T08:45:48;0.90;;;0.68;;
78895;SDS011;68284;59.124;37.910;2023-06-04T08:48:19;0.70;;;0.70;;
78895;SDS011;68284;59.124;37.910;2023-06-04T08:50:49;1.13;;;0.70;;
78895;SDS011;68284;59.124;37.910;2023-06-04T08:53:16;0.90;;;0.65;;
78895;SDS011;68284;59.124;37.910;2023-06-04T08:55:43;2.33;;;0.80;;
78895;SDS011;68284;59.124;37.910;2023-06-04T08:58:11;1.17;;;1.08;;
78895;SDS011;68284;59.124;37.910;2023-06-04T09:00:38;2.67;;;0.80;;
78895;SDS011;68284;59.124;37.910;2023-06-04T09:03:05;1.85;;;0.80;;
78895;SDS011;68284;59.124;37.910;2023-06-04T09:05:31;0.70;;;0.68;;
78895;SDS011;68284;59.124;37.910;2023-06-04T09:08:00;2.05;;;0.73;;
78895;SDS011;68284;59.124;37.910;2023-06-04T09:10:26;0.52;;;0.52;;
78895;SDS011;68284;59.124;37.910;2023-06-04T09:12:57;0.80;;;0.80;;
78895;SDS011;68284;59.124;37.910;2023-06-04T09:15:28;0.50;;;0.50;;
78895;SDS011;68284;59.124;37.910;2023-06-04T09:17:55;1.08;;;0.63;;
78895;SDS011;68284;59.124;37.910;2023-06-04T09:22:49;1.50;;;1.00;;
78895;SDS011;68284;59.124;37.910;2023-06-04T09:25:19;4.45;;;1.20;;
78895;SDS011;68284;59.124;37.910;2023-06-04T09:27:47;0.90;;;0.77;;
78895;SDS011;68284;59.124;37.910;2023-06-04T09:30:15;3.75;;;1.02;;
78895;SDS011;68284;59.124;37.910;2023-06-04T09:32:41;1.23;;;0.82;;
78895;SDS011;68284;59.124;37.910;2023-06-04T09:35:17;3.67;;;1.02;;
78895;SDS011;68284;59.124;37.910;2023-06-04T09:37:56;2.25;;;1.00;;
78895;SDS011;68284;59.124;37.910;2023-06-04T09:40:23;1.38;;;1.27;;
78895;SDS011;68284;59.124;37.910;2023-06-04T09:42:50;1.85;;;1.33;;
78895;SDS011;68284;59.124;37.910;2023-06-04T09:45:26;3.25;;;0.85;;
78895;SDS011;68284;59.124;37.910;2023-06-04T09:47:54;2.78;;;1.00;;
78895;SDS011;68284;59.124;37.910;2023-06-04T09:53:00;4.38;;;1.05;;
78895;SDS011;68284;59.124;37.910;2023-06-04T09:55:27;3.15;;;1.35;;
78895;SDS011;68284;59.124;37.910;2023-06-04T09:57:55;3.40;;;1.30;;
78895;SDS011;68284;59.124;37.910;2023-06-04T10:00:24;5.85;;;1.30;;
78895;SDS011;68284;59.124;37.910;2023-06-04T10:02:56;1.15;;;1.00;;
78895;SDS011;68284;59.124;37.910;2023-06-04T10:05:24;1.92;;;1.08;;
78895;SDS011;68284;59.124;37.910;2023-06-04T10:07:51;4.53;;;0.90;;
78895;SDS011;68284;59.124;37.910;2023-06-04T10:10:24;3.70;;;0.95;;
78895;SDS011;68284;59.124;37.910;2023-06-04T10:12:55;1.67;;;1.10;;
78895;SDS011;68284;59.124;37.910;2023-06-04T10:15:29;1.77;;;1.25;;
78895;SDS011;68284;59.124;37.910;2023-06-04T10:17:59;5.28;;;1.23;;
78895;SDS011;68284;59.124;37.910;2023-06-04T10:20:28;1.23;;;1.13;;
78895;SDS011;68284;59.124;37.910;2023-06-04T10:22:55;1.85;;;1.10;;
78895;SDS011;68284;59.124;37.910;2023-06-04T10:25:22;1.02;;;0.80;;
78895;SDS011;68284;59.124;37.910;2023-06-04T10:27:49;1.13;;;1.10;;
78895;SDS011;68284;59.124;37.910;2023-06-04T10:30:17;0.82;;;0.82;;
78895;SDS011;68284;59.124;37.910;2023-06-04T10:32:43;1.77;;;0.80;;
78895;SDS011;68284;59.124;37.910;2023-06-04T10:35:09;0.77;;;0.77;;
78895;SDS011;68284;59.124;37.910;2023-06-04T10:37:36;0.52;;;0.50;;
78895;SDS011;68284;59.124;37.910;2023-06-04T10:40:02;1.33;;;0.60;;
78895;SDS011;68284;59.124;37.910;2023-06-04T10:42:38;1.02;;;0.70;;
78895;SDS011;68284;59.124;37.910;2023-06-04T10:45:08;2.10;;;0.60;;
78895;SDS011;68284;59.124;37.910;2023-06-04T10:47:37;1.48;;;0.65;;
78895;SDS011;68284;59.124;37.910;2023-06-04T10:50:12;0.98;;;0.50;;
78895;SDS011;68284;59.124;37.910;2023-06-04T10:53:13;0.70;;;0.63;;
78895;SDS011;68284;59.124;37.910;2023-06-04T10:55:32;1.55;;;0.80;;
78895;SDS011;68284;59.124;37.910;2023-06-04T10:58:10;0.75;;;0.65;;
78895;SDS011;68284;59.124;37.910;2023-06-04T11:03:02;1.27;;;0.60;;
78895;SDS011;68284;59.124;37.910;2023-06-04T11:05:37;0.50;;;0.50;;
78895;SDS011;68284;59.124;37.910;2023-06-04T11:08:04;0.57;;;0.50;;
78895;SDS011;68284;59.124;37.910;2023-06-04T11:10:32;0.60;;;0.60;;
78895;SDS011;68284;59.124;37.910;2023-06-04T11:13:00;0.68;;;0.68;;
78895;SDS011;68284;59.124;37.910;2023-06-04T11:15:36;1.27;;;0.90;;
78895;SDS011;68284;59.124;37.910;2023-06-04T11:18:14;1.23;;;0.57;;
78895;SDS011;68284;59.124;37.910;2023-06-04T11:20:41;0.80;;;0.80;;
78895;SDS011;68284;59.124;37.910;2023-06-04T11:23:11;0.90;;;0.63;;
78895;SDS011;68284;59.124;37.910;2023-06-04T11:25:41;1.42;;;0.50;;
78895;SDS011;68284;59.124;37.910;2023-06-04T11:28:16;3.22;;;1.30;;
78895;SDS011;68284;59.124;37.910;2023-06-04T11:30:59;1.38;;;0.93;;
78895;SDS011;68284;59.124;37.910;2023-06-04T11:33:43;0.90;;;0.60;;
78895;SDS011;68284;59.124;37.910;2023-06-04T11:36:10;2.80;;;0.90;;
78895;SDS011;68284;59.124;37.910;2023-06-04T11:38:57;1.50;;;0.63;;
78895;SDS011;68284;59.124;37.910;2023-06-04T11:41:33;0.63;;;0.63;;
78895;SDS011;68284;59.124;37.910;2023-06-04T11:44:02;5.10;;;0.98;;
78895;SDS011;68284;59.124;37.910;2023-06-04T11:46:32;0.50;;;0.50;;
78895;SDS011;68284;59.124;37.910;2023-06-04T11:48:59;0.85;;;0.73;;
78895;SDS011;68284;59.124;37.910;2023-06-04T11:51:27;2.30;;;0.70;;
78895;SDS011;68284;59.124;37.910;2023-06-04T11:53:53;1.50;;;0.80;;
78895;SDS011;68284;59.124;37.910;2023-06-04T11:56:21;0.80;;;0.80;;
78895;SDS011;68284;59.124;37.910;2023-06-04T11:58:51;1.15;;;1.05;;
78895;SDS011;68284;59.124;37.910;2023-06-04T12:01:19;0.50;;;0.50;;
78895;SDS011;68284;59.124;37.910;2023-06-04T12:03:46;2.08;;;1.00;;
78895;SDS011;68284;59.124;37.910;2023-06-04T12:06:16;3.70;;;0.80;;
78895;SDS011;68284;59.124;37.910;2023-06-04T12:08:51;1.00;;;0.80;;
78895;SDS011;68284;59.124;37.910;2023-06-04T12:14:15;1.77;;;0.90;;
78895;SDS011;68284;59.124;37.910;2023-06-04T12:16:59;4.95;;;0.85;;
78895;SDS011;68284;59.124;37.910;2023-06-04T12:19:27;0.63;;;0.63;;
78895;SDS011;68284;59.124;37.910;2023-06-04T12:22:01;0.70;;;0.70;;
78895;SDS011;68284;59.124;37.910;2023-06-04T12:24:31;0.98;;;0.98;;
78895;SDS011;68284;59.124;37.910;2023-06-04T12:27:02;1.33;;;0.85;;
78895;SDS011;68284;59.124;37.910;2023-06-04T12:29:34;0.80;;;0.73;;
78895;SDS011;68284;59.124;37.910;2023-06-04T12:32:07;1.50;;;0.82;;
78895;SDS011;68284;59.124;37.910;2023-06-04T12:34:34;0.98;;;0.70;;
78895;SDS011;68284;59.124;37.910;2023-06-04T12:37:01;1.10;;;0.90;;
78895;SDS011;68284;59.124;37.910;2023-06-04T12:39:29;3.70;;;0.73;;
78895;SDS011;68284;59.124;37.910;2023-06-04T12:41:55;5.60;;;0.82;;
78895;SDS011;68284;59.124;37.910;2023-06-04T12:44:21;1.20;;;0.63;;
78895;SDS011;68284;59.124;37.910;2023-06-04T12:46:47;0.60;;;0.60;;
78895;SDS011;68284;59.124;37.910;2023-06-04T12:49:13;0.70;;;0.70;;
78895;SDS011;68284;59.124;37.910;2023-06-04T12:51:41;1.85;;;0.90;;
78895;SDS011;68284;59.124;37.910;2023-06-04T12:56:33;1.40;;;1.08;;
78895;SDS011;68284;59.124;37.910;2023-06-04T12:59:00;0.82;;;0.60;;
78895;SDS011;68284;59.124;37.910;2023-06-04T13:04:00;2.50;;;0.60;;
78895;SDS011;68284;59.124;37.910;2023-06-04T13:06:27;2.67;;;0.55;;
78895;SDS011;68284;59.124;37.910;2023-06-04T13:08:53;1.52;;;0.50;;
78895;SDS011;68284;59.124;37.910;2023-06-04T13:11:20;1.52;;;0.50;;
78895;SDS011;68284;59.124;37.910;2023-06-04T13:13:47;1.02;;;1.02;;
78895;SDS011;68284;59.124;37.910;2023-06-04T13:16:14;1.40;;;0.70;;
78895;SDS011;68284;59.124;37.910;2023-06-04T13:18:40;1.00;;;0.50;;
78895;SDS011;68284;59.124;37.910;2023-06-04T13:21:06;0.80;;;0.80;;
78895;SDS011;68284;59.124;37.910;2023-06-04T13:23:32;0.60;;;0.60;;
78895;SDS011;68284;59.124;37.910;2023-06-04T13:25:58;1.52;;;0.50;;
78895;SDS011;68284;59.124;37.910;2023-06-04T13:28:26;1.35;;;0.90;;
78895;SDS011;68284;59.124;37.910;2023-06-04T13:30:53;4.70;;;0.80;;
78895;SDS011;68284;59.124;37.910;2023-06-04T13:33:19;0.98;;;0.57;;
78895;SDS011;68284;59.124;37.910;2023-06-04T13:35:47;1.05;;;1.05;;
78895;SDS011;68284;59.124;37.910;2023-06-04T13:40:39;0.90;;;0.90;;
78895;SDS011;68284;59.124;37.910;2023-06-04T13:45:34;2.70;;;1.73;;
78895;SDS011;68284;59.124;37.910;2023-06-04T13:48:01;0.68;;;0.68;;
78895;SDS011;68284;59.124;37.910;2023-06-04T13:50:28;0.50;;;0.50;;
78895;SDS011;68284;59.124;37.910;2023-06-04T13:52:54;2.58;;;0.73;;
78895;SDS011;68284;59.124;37.910;2023-06-04T13:55:20;0.82;;;0.60;;
78895;SDS011;68284;59.124;37.910;2023-06-04T13:57:46;0.80;;;0.52;;
78895;SDS011;68284;59.124;37.910;2023-06-04T14:00:13;2.22;;;0.70;;
78895;SDS011;68284;59.124;37.910;2023-06-04T14:02:40;2.40;;;0.60;;
78895;SDS011;68284;59.124;37.910;2023-06-04T14:05:07;0.82;;;0.80;;
78895;SDS011;68284;59.124;37.910;2023-06-04T14:07:33;0.93;;;0.60;;
78895;SDS011;68284;59.124;37.910;2023-06-04T14:10:00;0.73;;;0.30;;
78895;SDS011;68284;59.124;37.910;2023-06-04T14:12:26;0.77;;;0.70;;
78895;SDS011;68284;59.124;37.910;2023-06-04T14:14:53;1.15;;;0.60;;
78895;SDS011;68284;59.124;37.910;2023-06-04T14:17:19;3.63;;;1.35;;
78895;SDS011;68284;59.124;37.910;2023-06-04T14:19:46;0.82;;;0.70;;
78895;SDS011;68284;59.124;37.910;2023-06-04T14:22:12;0.95;;;0.95;;
78895;SDS011;68284;59.124;37.910;2023-06-04T14:24:40;4.05;;;1.00;;
78895;SDS011;68284;59.124;37.910;2023-06-04T14:27:07;1.42;;;0.73;;
78895;SDS011;68284;59.124;37.910;2023-06-04T14:29:34;0.70;;;0.52;;
78895;SDS011;68284;59.124;37.910;2023-06-04T14:32:04;1.55;;;0.93;;
78895;SDS011;68284;59.124;37.910;2023-06-04T14:34:31;1.38;;;0.60;;
78895;SDS011;68284;59.124;37.910;2023-06-04T14:37:00;0.60;;;0.60;;
78895;SDS011;68284;59.124;37.910;2023-06-04T14:39:27;1.10;;;0.70;;
78895;SDS011;68284;59.124;37.910;2023-06-04T14:41:53;1.05;;;0.90;;
78895;SDS011;68284;59.124;37.910;2023-06-04T14:44:21;2.35;;;0.68;;
78895;SDS011;68284;59.124;37.910;2023-06-04T14:46:48;1.48;;;0.93;;
78895;SDS011;68284;59.124;37.910;2023-06-04T14:49:17;4.82;;;0.90;;
78895;SDS011;68284;59.124;37.910;2023-06-04T14:51:43;2.15;;;1.20;;
78895;SDS011;68284;59.124;37.910;2023-06-04T14:54:10;1.52;;;0.77;;
78895;SDS011;68284;59.124;37.910;2023-06-04T14:56:36;2.15;;;0.68;;
78895;SDS011;68284;59.124;37.910;2023-06-04T14:59:02;1.15;;;0.80;;
78895;SDS011;68284;59.124;37.910;2023-06-04T15:01:35;0.98;;;0.73;;
78895;SDS011;68284;59.124;37.910;2023-06-04T15:04:02;1.00;;;0.50;;
78895;SDS011;68284;59.124;37.910;2023-06-04T15:06:29;1.05;;;0.73;;
78895;SDS011;68284;59.124;37.910;2023-06-04T15:08:55;0.80;;;0.70;;
78895;SDS011;68284;59.124;37.910;2023-06-04T15:11:22;1.65;;;0.90;;
78895;SDS011;68284;59.124;37.910;2023-06-04T15:13:49;4.28;;;1.45;;
78895;SDS011;68284;59.124;37.910;2023-06-04T15:16:16;2.10;;;0.65;;
78895;SDS011;68284;59.124;37.910;2023-06-04T15:18:43;1.77;;;0.95;;
78895;SDS011;68284;59.124;37.910;2023-06-04T15:21:09;1.55;;;1.15;;
78895;SDS011;68284;59.124;37.910;2023-06-04T15:23:36;0.95;;;0.70;;
78895;SDS011;68284;59.124;37.910;2023-06-04T15:26:02;1.48;;;0.63;;
78895;SDS011;68284;59.124;37.910;2023-06-04T15:28:29;2.35;;;1.23;;